createdAt,value
2023-04-10T00:36:09.679Z,18.82
2023-04-10T00:37:12.483Z,18.85
2023-04-10T00:38:25.746Z,18.84
2023-04-10T00:39:28.438Z,18.84
2023-04-10T00:40:42.231Z,18.82
2023-04-10T00:42:14.565Z,18.84
2023-04-10T00:42:58.249Z,18.84
2023-04-10T00:44:10.861Z,18.85
2023-04-10T00:45:24.249Z,18.84
2023-04-10T00:46:26.980Z,18.85
2023-04-10T00:47:40.783Z,18.85
2023-04-10T00:48:53.435Z,18.87
2023-04-10T00:50:06.731Z,18.84
2023-04-10T00:51:09.461Z,18.85
2023-04-10T00:52:22.778Z,18.87
2023-04-10T00:53:35.518Z,18.88
2023-04-10T00:54:39.241Z,18.87
2023-04-10T00:55:51.908Z,18.87
2023-04-10T00:57:05.238Z,18.87
2023-04-10T00:58:07.992Z,18.84
2023-04-10T00:59:21.759Z,18.84
2023-04-10T01:00:34.406Z,18.84
2023-04-10T01:01:47.821Z,18.84
2023-04-10T01:02:50.800Z,18.81
2023-04-10T01:04:04.379Z,18.82
2023-04-10T01:05:17.141Z,18.84
2023-04-10T01:06:20.736Z,18.81
2023-04-10T01:07:33.366Z,18.84
2023-04-10T01:08:46.724Z,18.81
2023-04-10T01:09:49.429Z,18.81
2023-04-10T01:11:02.740Z,18.81
2023-04-10T01:12:15.389Z,18.81
2023-04-10T01:13:28.736Z,18.78
2023-04-10T01:14:31.460Z,18.84
2023-04-10T01:15:44.770Z,18.81
2023-04-10T01:16:57.449Z,18.81
2023-04-10T01:18:01.300Z,18.8
2023-04-10T01:19:14.155Z,18.81
2023-04-10T01:20:27.767Z,18.8
2023-04-10T01:21:30.474Z,18.81
2023-04-10T01:22:43.731Z,18.8
2023-04-10T01:23:56.561Z,18.78
2023-04-10T01:25:00.295Z,18.78
2023-04-10T01:26:12.953Z,18.8
2023-04-10T01:27:26.267Z,18.8
2023-04-10T01:28:38.946Z,18.78
2023-04-10T01:29:44.495Z,18.81
2023-04-10T01:30:57.737Z,18.78
2023-04-10T01:32:01.860Z,18.78
2023-04-10T01:33:14.769Z,18.77
2023-04-10T01:34:28.322Z,18.77
2023-04-10T01:35:31.185Z,18.77
2023-04-10T01:36:44.767Z,18.78
2023-04-10T01:37:57.388Z,18.77
2023-04-10T01:39:10.763Z,18.75
2023-04-10T01:40:13.464Z,18.78
2023-04-10T01:41:26.745Z,18.78
2023-04-10T01:42:39.405Z,18.77
2023-04-10T01:43:42.769Z,18.78
2023-04-10T01:44:55.408Z,18.75
2023-04-10T01:46:08.829Z,18.75
2023-04-10T01:47:11.588Z,18.75
2023-04-10T01:48:24.758Z,18.74
2023-04-10T01:49:37.397Z,18.75
2023-04-10T01:50:50.770Z,18.75
2023-04-10T01:51:53.695Z,18.74
2023-04-10T01:53:07.257Z,18.75
2023-04-10T01:54:19.908Z,18.74
2023-04-10T01:55:23.786Z,18.74
2023-04-10T01:56:36.403Z,18.75
2023-04-10T01:57:50.298Z,18.74
2023-04-10T01:58:52.993Z,18.74
2023-04-10T02:00:06.312Z,18.74
2023-04-10T02:01:28.493Z,18.74
2023-04-10T02:02:23.876Z,18.75
2023-04-10T02:03:36.852Z,18.74
2023-04-10T02:04:50.319Z,18.74
2023-04-10T02:05:53.059Z,18.74
2023-04-10T02:07:06.330Z,18.74
2023-04-10T02:08:18.958Z,18.73
2023-04-10T02:09:32.275Z,18.74
2023-04-10T02:10:34.943Z,18.73
2023-04-10T02:11:48.310Z,18.74
2023-04-10T02:13:00.901Z,18.71
2023-04-10T02:14:04.323Z,18.73
2023-04-10T02:15:16.925Z,18.73
2023-04-10T02:16:30.341Z,18.74
2023-04-10T02:17:33.166Z,18.73
2023-04-10T02:18:46.797Z,18.73
2023-04-10T02:19:59.614Z,18.71
2023-04-10T02:21:12.819Z,18.71
2023-04-10T02:22:15.525Z,18.73
2023-04-10T02:23:28.784Z,18.66
2023-04-10T02:24:42.164Z,18.69
2023-04-10T02:25:45.786Z,18.69
2023-04-10T02:26:58.396Z,18.66
2023-04-10T02:28:11.835Z,18.66
2023-04-10T02:29:14.536Z,18.68
2023-04-10T02:30:29.306Z,18.66
2023-04-10T02:31:41.977Z,18.65
2023-04-10T02:32:45.345Z,18.65
2023-04-10T02:33:58.096Z,18.66
2023-04-10T02:35:11.281Z,18.66
2023-04-10T02:36:23.900Z,18.65
2023-04-10T02:37:27.306Z,18.64
2023-04-10T02:38:39.951Z,18.64
2023-04-10T02:39:53.289Z,18.62
2023-04-10T02:40:55.986Z,18.64
2023-04-10T02:42:09.315Z,18.62
2023-04-10T02:43:21.956Z,18.64
2023-04-10T02:44:35.294Z,18.62
2023-04-10T02:45:38.001Z,18.6
2023-04-10T02:46:51.309Z,18.61
2023-04-10T02:48:04.047Z,18.61
2023-04-10T02:49:07.792Z,18.61
2023-04-10T02:50:20.462Z,18.61
2023-04-10T02:51:33.811Z,18.64
2023-04-10T02:52:36.654Z,18.55
2023-04-10T02:53:50.321Z,18.61
2023-04-10T02:55:02.955Z,18.6
2023-04-10T02:56:16.317Z,18.6
2023-04-10T02:57:19.071Z,18.6
2023-04-10T02:58:32.306Z,18.58
2023-04-10T02:59:44.937Z,18.57
2023-04-10T03:00:48.293Z,18.58
2023-04-10T03:02:01.009Z,18.58
2023-04-10T03:03:14.974Z,18.6
2023-04-10T03:04:17.950Z,18.58
2023-04-10T03:05:31.333Z,18.57
2023-04-10T03:06:43.975Z,18.55
2023-04-10T03:08:07.290Z,18.57
2023-04-10T03:09:00.062Z,18.57
2023-04-10T03:10:33.335Z,18.58
2023-04-10T03:11:26.096Z,18.57
2023-04-10T03:12:28.809Z,18.61
2023-04-10T03:13:42.337Z,18.6
2023-04-10T03:14:54.959Z,18.61
2023-04-10T03:15:58.327Z,18.61
2023-04-10T03:17:10.960Z,18.6
2023-04-10T03:18:24.289Z,18.58
2023-04-10T03:19:36.933Z,18.62
2023-04-10T03:20:40.307Z,18.61
2023-04-10T03:21:52.931Z,18.6
2023-04-10T03:23:06.301Z,18.6
2023-04-10T03:24:08.980Z,18.58
2023-04-10T03:25:22.323Z,18.58
2023-04-10T03:26:34.960Z,18.58
2023-04-10T03:27:48.439Z,18.58
2023-04-10T03:28:51.210Z,18.57
2023-04-10T03:30:04.846Z,18.55
2023-04-10T03:31:17.478Z,18.55
2023-04-10T03:32:20.811Z,18.57
2023-04-10T03:33:33.542Z,18.55
2023-04-10T03:34:47.332Z,18.51
2023-04-10T03:35:50.069Z,18.53
2023-04-10T03:37:03.838Z,18.53
2023-04-10T03:38:16.493Z,18.53
2023-04-10T03:39:19.843Z,18.53
2023-04-10T03:40:32.469Z,18.51
2023-04-10T03:41:45.805Z,18.53
2023-04-10T03:42:58.463Z,18.48
2023-04-10T03:44:01.819Z,18.51
2023-04-10T03:45:14.464Z,18.51
2023-04-10T03:46:27.849Z,18.51
2023-04-10T03:47:30.727Z,18.48
2023-04-10T03:48:45.796Z,18.5
2023-04-10T03:49:58.511Z,18.48
2023-04-10T03:51:01.852Z,18.51
2023-04-10T03:52:14.498Z,18.5
2023-04-10T03:53:27.825Z,18.5
